createdAt,value
2018-07-10T00:02:29.551Z,72.02
2018-07-10T00:05:12.112Z,72.39
2018-07-10T00:07:52.021Z,72.84
2018-07-10T00:10:43.235Z,72.78
2018-07-10T00:13:12.205Z,73.19
2018-07-10T00:15:41.221Z,72.80
2018-07-10T00:18:10.727Z,73.74
2018-07-10T00:20:40.396Z,72.99
2018-07-10T00:23:09.790Z,73.17
2018-07-10T00:25:39.019Z,72.21
2018-07-10T00:28:08.081Z,70.78
2018-07-10T00:30:37.386Z,70.92
2018-07-10T00:33:06.698Z,71.45
2018-07-10T00:35:36.081Z,70.77
2018-07-10T00:38:16.113Z,70.91
2018-07-10T00:40:45.262Z,72.04
2018-07-10T00:43:14.548Z,71.64
2018-07-10T00:45:43.794Z,72.00
2018-07-10T00:48:13.102Z,71.48
2018-07-10T00:50:42.422Z,71.11
2018-07-10T00:53:11.739Z,71.22
2018-07-10T00:55:41.780Z,71.12
2018-07-10T00:58:10.967Z,71.95
2018-07-10T01:00:40.224Z,70.96
2018-07-10T01:03:09.347Z,71.41
2018-07-10T01:05:38.637Z,71.41
2018-07-10T01:08:07.739Z,72.35
2018-07-10T01:10:37.038Z,73.93
2018-07-10T01:13:06.299Z,74.55
2018-07-10T01:15:35.391Z,74.71
2018-07-10T01:18:04.599Z,74.68
2018-07-10T01:20:33.617Z,74.96
2018-07-10T01:23:02.868Z,72.90
2018-07-10T01:25:32.018Z,74.37
2018-07-10T01:28:01.011Z,73.16
2018-07-10T01:30:30.826Z,73.96
2018-07-10T01:32:59.906Z,73.73
2018-07-10T01:35:30.511Z,73.92
2018-07-10T01:37:59.734Z,74.08
2018-07-10T01:40:28.959Z,74.21
2018-07-10T01:42:58.294Z,73.98
2018-07-10T01:45:27.523Z,74.61
2018-07-10T01:47:56.793Z,74.00
2018-07-10T01:50:26.683Z,73.00
2018-07-10T01:52:55.710Z,72.19
2018-07-10T01:55:24.952Z,71.86
2018-07-10T01:57:56.260Z,71.75
2018-07-10T02:00:37.761Z,72.72
2018-07-10T02:03:07.358Z,74.01
2018-07-10T02:05:36.506Z,75.04
2018-07-10T02:08:07.147Z,73.27
2018-07-10T02:10:36.309Z,73.69
2018-07-10T02:13:05.806Z,74.36
2018-07-10T02:15:35.035Z,73.20
2018-07-10T02:18:04.893Z,73.12
2018-07-10T02:20:56.716Z,72.57
2018-07-10T02:23:31.272Z,72.12
2018-07-10T02:26:00.479Z,72.54
2018-07-10T02:28:30.003Z,73.47
2018-07-10T02:31:00.663Z,74.03
2018-07-10T02:33:30.227Z,74.21
2018-07-10T02:36:00.163Z,73.69
2018-07-10T02:38:29.666Z,73.60
2018-07-10T02:40:59.652Z,74.36
2018-07-10T02:43:28.857Z,73.78
2018-07-10T02:45:58.806Z,73.69
2018-07-10T02:48:30.938Z,73.41
2018-07-10T02:51:02.612Z,72.27
2018-07-10T02:53:32.991Z,72.67
2018-07-10T02:56:02.516Z,73.05
2018-07-10T02:58:34.785Z,71.93
2018-07-10T03:01:04.884Z,71.52
2018-07-10T03:03:36.520Z,71.97
2018-07-10T03:06:06.602Z,71.21
2018-07-10T03:08:36.210Z,71.03
2018-07-10T03:11:06.190Z,71.92
2018-07-10T03:13:35.909Z,70.96
2018-07-10T03:16:05.286Z,71.12
2018-07-10T03:18:34.526Z,71.71
2018-07-10T03:21:04.356Z,70.93
2018-07-10T03:23:34.200Z,70.73
2018-07-10T03:26:03.537Z,71.49
2018-07-10T03:28:32.941Z,71.58
2018-07-10T03:31:02.279Z,71.75
2018-07-10T03:33:31.442Z,71.91
2018-07-10T03:36:00.793Z,71.68
2018-07-10T03:38:30.074Z,73.06
2018-07-10T03:40:59.382Z,71.64
2018-07-10T03:43:29.197Z,71.78
2018-07-10T03:45:58.456Z,72.96
2018-07-10T03:48:28.136Z,72.84
2018-07-10T03:50:57.458Z,72.43
2018-07-10T03:53:26.651Z,73.35
2018-07-10T03:55:55.790Z,73.67
2018-07-10T03:58:24.942Z,73.65
2018-07-10T04:00:54.574Z,73.89
2018-07-10T04:03:29.726Z,73.94
2018-07-10T04:05:59.954Z,74.14
2018-07-10T04:08:29.623Z,74.07
2018-07-10T04:10:59.042Z,74.05
2018-07-10T04:13:28.430Z,73.96
2018-07-10T04:16:00.965Z,74.34
2018-07-10T04:18:32.351Z,73.86
2018-07-10T04:21:18.770Z,74.11
2018-07-10T04:23:49.926Z,72.93
2018-07-10T04:26:21.449Z,72.78
2018-07-10T04:29:11.640Z,73.88
2018-07-10T04:31:48.839Z,72.64
2018-07-10T04:34:18.255Z,73.56
2018-07-10T04:36:48.855Z,72.86
2018-07-10T04:39:18.156Z,73.10
2018-07-10T04:41:56.392Z,73.67
2018-07-10T04:44:31.950Z,73.16
2018-07-10T04:47:10.739Z,72.73
2018-07-10T04:49:54.102Z,71.61
2018-07-10T04:52:29.429Z,70.76
2018-07-10T04:55:09.162Z,70.63
2018-07-10T04:57:51.477Z,70.60
2018-07-10T05:00:20.680Z,70.45
2018-07-10T05:02:50.800Z,70.24
2018-07-10T05:05:19.912Z,70.24
2018-07-10T05:07:49.179Z,71.30
2018-07-10T05:10:18.835Z,70.51
2018-07-10T05:12:48.555Z,70.66
2018-07-10T05:15:17.751Z,71.53
2018-07-10T05:17:50.607Z,71.54
2018-07-10T05:20:21.499Z,71.28
2018-07-10T05:22:50.731Z,71.76
2018-07-10T05:25:19.764Z,70.33
2018-07-10T05:27:50.253Z,70.97
2018-07-10T05:30:20.044Z,71.96
2018-07-10T05:32:49.358Z,71.30
2018-07-10T05:35:19.401Z,71.59
2018-07-10T05:37:50.732Z,70.16
2018-07-10T05:40:27.052Z,70.46
2018-07-10T05:42:56.390Z,70.25
2018-07-10T05:45:26.478Z,69.94
2018-07-10T05:47:59.113Z,69.65
2018-07-10T05:50:35.106Z,71.31
2018-07-10T05:53:06.491Z,70.75
2018-07-10T05:55:35.756Z,71.69
2018-07-10T05:58:05.077Z,71.42
2018-07-10T06:00:35.106Z,72.42
2018-07-10T06:03:05.020Z,72.47
2018-07-10T06:05:34.595Z,72.71
2018-07-10T06:08:03.779Z,70.74
2018-07-10T06:10:33.656Z,71.04
2018-07-10T06:13:04.355Z,70.85
2018-07-10T06:15:33.535Z,70.56
2018-07-10T06:18:02.651Z,71.52
2018-07-10T06:20:32.053Z,70.03
2018-07-10T06:23:01.286Z,70.35
2018-07-10T06:25:33.706Z,69.86
2018-07-10T06:28:10.204Z,68.36
2018-07-10T06:30:40.161Z,67.98
2018-07-10T06:33:52.003Z,68.68
2018-07-10T06:36:26.975Z,68.99
2018-07-10T06:39:10.998Z,67.79
2018-07-10T06:41:46.408Z,68.02
2018-07-10T06:44:17.974Z,67.48
2018-07-10T06:46:57.706Z,67.78
2018-07-10T06:49:30.899Z,66.08
2018-07-10T06:52:20.576Z,64.07
2018-07-10T06:55:05.974Z,63.19
2018-07-10T06:57:38.022Z,63.09
2018-07-10T07:00:10.323Z,61.62
2018-07-10T07:02:40.051Z,60.61
2018-07-10T07:05:09.879Z,61.05
2018-07-10T07:07:40.086Z,61.14
2018-07-10T07:10:11.050Z,60.94
2018-07-10T07:12:41.478Z,60.72
2018-07-10T07:15:12.792Z,61.94
2018-07-10T07:17:43.403Z,60.69
2018-07-10T07:20:12.582Z,58.85
2018-07-10T07:22:41.664Z,56.21
2018-07-10T07:25:10.739Z,55.52
2018-07-10T07:27:39.748Z,55.42
2018-07-10T07:30:08.964Z,56.49
2018-07-10T07:32:38.504Z,56.56
2018-07-10T07:35:07.514Z,58.04
2018-07-10T07:37:40.303Z,60.01
2018-07-10T07:40:11.474Z,58.65
2018-07-10T07:42:41.050Z,58.61
2018-07-10T07:45:10.592Z,56.28
2018-07-10T07:47:40.028Z,56.30
2018-07-10T07:50:09.369Z,56.72
2018-07-10T07:52:38.336Z,57.14
2018-07-10T07:55:07.571Z,57.08
2018-07-10T07:57:36.706Z,58.31
2018-07-10T08:00:07.698Z,58.65
2018-07-10T08:02:37.037Z,59.72
2018-07-10T08:05:09.585Z,60.58
2018-07-10T08:07:38.886Z,60.25
2018-07-10T08:10:08.111Z,60.80
2018-07-10T08:12:37.582Z,61.33
2018-07-10T08:15:07.735Z,61.19
2018-07-10T08:17:37.474Z,60.90
2018-07-10T08:20:08.778Z,60.95
2018-07-10T08:22:38.092Z,60.93
2018-07-10T08:25:08.083Z,60.50
2018-07-10T08:27:38.051Z,60.83
2018-07-10T08:30:08.866Z,61.32
2018-07-10T08:32:39.030Z,59.87
2018-07-10T08:35:08.179Z,58.65
2018-07-10T08:37:37.681Z,58.65
2018-07-10T08:40:07.811Z,57.82
2018-07-10T08:42:37.079Z,57.96
2018-07-10T08:45:08.077Z,57.31
2018-07-10T08:47:38.543Z,57.36
2018-07-10T08:50:07.647Z,58.64
2018-07-10T08:52:37.501Z,58.93
2018-07-10T08:55:08.419Z,59.04
2018-07-10T08:57:37.588Z,59.94
2018-07-10T09:00:07.839Z,59.28
2018-07-10T09:02:36.853Z,58.42
2018-07-10T09:05:07.658Z,59.02
2018-07-10T09:07:37.602Z,58.24
2018-07-10T09:10:07.970Z,57.91
2018-07-10T09:12:37.069Z,58.42
2018-07-10T09:15:08.857Z,57.68
2018-07-10T09:17:38.548Z,57.95
2018-07-10T09:20:07.854Z,58.69
2018-07-10T09:22:36.898Z,58.84
2018-07-10T09:25:09.645Z,58.40
2018-07-10T09:27:39.225Z,57.14
2018-07-10T09:30:08.292Z,56.92
2018-07-10T09:32:44.540Z,55.63
2018-07-10T09:35:13.984Z,53.65
2018-07-10T09:37:44.726Z,53.30
2018-07-10T09:40:18.213Z,53.69
2018-07-10T09:42:56.859Z,53.18
2018-07-10T09:45:29.176Z,54.69
2018-07-10T09:47:58.602Z,53.56
2018-07-10T09:50:28.291Z,53.84
2018-07-10T09:52:57.626Z,52.54
2018-07-10T09:55:26.750Z,53.94
2018-07-10T09:57:58.608Z,53.75
2018-07-10T10:00:33.123Z,53.95
2018-07-10T10:03:03.242Z,55.01
2018-07-10T10:05:37.444Z,55.82
2018-07-10T10:08:06.615Z,54.98
2018-07-10T10:10:36.351Z,54.15
2018-07-10T10:13:06.283Z,54.69
2018-07-10T10:15:36.794Z,53.94
2018-07-10T10:18:09.153Z,54.73
2018-07-10T10:20:40.370Z,55.13
2018-07-10T10:23:13.044Z,56.13
2018-07-10T10:25:52.202Z,57.21
2018-07-10T10:28:24.940Z,57.06
2018-07-10T10:30:54.334Z,58.07
2018-07-10T10:33:23.866Z,57.69
2018-07-10T10:35:53.124Z,56.55
2018-07-10T10:38:23.412Z,54.41
2018-07-10T10:40:53.114Z,54.68
2018-07-10T10:43:23.442Z,54.68
2018-07-10T10:45:52.560Z,53.98
2018-07-10T10:48:21.828Z,53.24
2018-07-10T10:50:52.395Z,53.00
2018-07-10T10:53:22.492Z,55.46
2018-07-10T10:55:53.040Z,56.13
2018-07-10T10:58:23.575Z,56.57
2018-07-10T11:00:53.299Z,58.60
2018-07-10T11:03:22.559Z,58.09
2018-07-10T11:05:52.957Z,59.00
2018-07-10T11:08:23.875Z,57.89
2018-07-10T11:10:53.325Z,59.29
2018-07-10T11:13:23.497Z,58.15
2018-07-10T11:15:53.267Z,57.99
2018-07-10T11:18:56.127Z,56.09
2018-07-10T11:21:49.220Z,56.00
2018-07-10T11:24:18.408Z,55.00
2018-07-10T11:26:47.411Z,55.40
2018-07-10T11:29:17.524Z,55.40
2018-07-10T11:31:46.711Z,55.26
2018-07-10T11:34:15.986Z,56.71
2018-07-10T11:36:45.437Z,56.51
2018-07-10T11:39:15.028Z,55.34
2018-07-10T11:41:45.917Z,55.52
2018-07-10T11:44:15.112Z,56.11
2018-07-10T11:46:44.298Z,55.67
2018-07-10T11:49:13.539Z,56.37
2018-07-10T11:51:42.576Z,56.95
2018-07-10T11:54:12.596Z,56.10
2018-07-10T11:56:41.856Z,56.51
2018-07-10T11:59:11.354Z,55.25
2018-07-10T12:01:40.714Z,54.69
2018-07-10T12:04:10.391Z,54.79
2018-07-10T12:06:46.751Z,54.50
2018-07-10T12:09:16.577Z,55.01
2018-07-10T12:11:46.641Z,55.20
2018-07-10T12:14:15.958Z,54.08
2018-07-10T12:16:45.083Z,54.23
2018-07-10T12:19:15.796Z,54.12
2018-07-10T12:21:45.062Z,55.18
2018-07-10T12:24:14.517Z,55.95
2018-07-10T12:26:44.085Z,56.09
2018-07-10T12:29:13.913Z,57.00
2018-07-10T12:31:43.838Z,56.46
2018-07-10T12:34:13.451Z,56.96
2018-07-10T12:36:43.076Z,56.92
2018-07-10T12:39:12.365Z,56.85
2018-07-10T12:41:41.531Z,57.21
2018-07-10T12:44:10.858Z,58.29
2018-07-10T12:46:40.175Z,58.30
2018-07-10T12:49:09.459Z,58.66
2018-07-10T12:51:39.455Z,57.53
2018-07-10T12:54:08.546Z,56.45
2018-07-10T12:56:37.762Z,57.55
2018-07-10T12:59:07.750Z,57.76
2018-07-10T13:01:37.503Z,58.14
2018-07-10T13:04:06.820Z,57.73
2018-07-10T13:06:35.876Z,58.54
2018-07-10T13:09:05.400Z,59.07
2018-07-10T13:11:35.790Z,59.26
2018-07-10T13:14:05.548Z,60.89
2018-07-10T13:16:34.728Z,59.60
2018-07-10T13:19:03.815Z,59.53
2018-07-10T13:21:37.783Z,59.70
2018-07-10T13:24:07.102Z,59.88
2018-07-10T13:26:37.164Z,60.69
2018-07-10T13:29:06.875Z,60.16
2018-07-10T13:31:36.679Z,61.42
2018-07-10T13:34:05.743Z,61.79
2018-07-10T13:36:35.179Z,62.72
2018-07-10T13:39:05.913Z,62.79
2018-07-10T13:41:35.829Z,68.08
2018-07-10T13:44:05.230Z,76.32
2018-07-10T13:46:34.262Z,76.55
2018-07-10T13:49:03.548Z,81.22
2018-07-10T13:51:32.731Z,81.30
2018-07-10T13:54:02.056Z,82.76
2018-07-10T13:56:31.814Z,82.46
2018-07-10T13:59:01.891Z,83.26
2018-07-10T14:01:31.255Z,82.38
2018-07-10T14:04:00.334Z,81.98
2018-07-10T14:06:29.928Z,82.35
2018-07-10T14:08:59.247Z,81.26
2018-07-10T14:11:28.433Z,83.11
2018-07-10T14:13:57.810Z,81.20
2018-07-10T14:16:27.355Z,80.61
2018-07-10T14:18:59.472Z,77.12
2018-07-10T14:21:29.023Z,78.25
2018-07-10T14:23:58.331Z,74.65
2018-07-10T14:26:27.976Z,72.81
2018-07-10T14:28:57.340Z,72.31
2018-07-10T14:31:27.239Z,73.10
2018-07-10T14:33:56.352Z,71.13
2018-07-10T14:36:26.732Z,70.70
2018-07-10T14:38:56.377Z,70.96
2018-07-10T14:41:27.392Z,70.06
2018-07-10T14:43:56.627Z,70.41
2018-07-10T14:46:26.435Z,69.17
2018-07-10T14:48:58.911Z,70.00
2018-07-10T14:51:34.328Z,70.26
2018-07-10T14:54:03.717Z,71.04
2018-07-10T14:56:32.909Z,70.98
2018-07-10T14:59:02.289Z,70.78
2018-07-10T15:01:31.963Z,70.03
2018-07-10T15:04:01.886Z,69.69
2018-07-10T15:06:31.198Z,66.69
2018-07-10T15:09:00.484Z,67.17
2018-07-10T15:11:29.641Z,65.91
2018-07-10T15:14:02.637Z,67.05
2018-07-10T15:16:37.550Z,68.30
2018-07-10T15:19:07.038Z,68.14
2018-07-10T15:21:36.464Z,67.54
2018-07-10T15:24:07.158Z,67.96
2018-07-10T15:26:36.526Z,65.92
2018-07-10T15:29:05.825Z,64.86
2018-07-10T15:31:34.880Z,67.66
2018-07-10T15:34:04.019Z,67.54
2018-07-10T15:36:33.102Z,69.07
2018-07-10T15:39:04.898Z,68.60
2018-07-10T15:41:38.775Z,67.86
2018-07-10T15:44:08.077Z,67.79
2018-07-10T15:46:37.268Z,67.90
2018-07-10T15:49:07.785Z,66.27
2018-07-10T15:51:37.083Z,67.58
2018-07-10T15:54:06.956Z,68.52
2018-07-10T15:56:36.533Z,69.56
2018-07-10T15:59:06.436Z,69.84
2018-07-10T16:01:35.735Z,69.67
2018-07-10T16:04:09.054Z,70.95
2018-07-10T16:06:38.629Z,68.90
2018-07-10T16:09:15.124Z,68.31
2018-07-10T16:11:44.720Z,68.02
2018-07-10T16:14:14.627Z,70.44
2018-07-10T16:16:43.940Z,69.22
2018-07-10T16:19:16.212Z,69.58
2018-07-10T16:22:01.765Z,70.03
2018-07-10T16:24:35.123Z,75.41
2018-07-10T16:27:04.307Z,84.71
2018-07-10T16:29:33.428Z,85.94
2018-07-10T16:32:06.500Z,88.35
2018-07-10T16:34:36.162Z,86.48
2018-07-10T16:37:05.754Z,87.65
2018-07-10T16:39:35.095Z,87.77
2018-07-10T16:42:09.493Z,87.12
2018-07-10T16:44:40.412Z,87.87
2018-07-10T16:47:13.677Z,88.32
2018-07-10T16:49:45.080Z,87.48
2018-07-10T16:52:26.636Z,87.36
2018-07-10T16:54:55.667Z,87.73
2018-07-10T16:57:24.943Z,88.02
2018-07-10T16:59:53.992Z,88.22
2018-07-10T17:02:23.942Z,87.30
2018-07-10T17:04:53.754Z,87.94
2018-07-10T17:07:23.267Z,88.22
2018-07-10T17:09:52.290Z,88.22
2018-07-10T17:12:21.780Z,88.30
2018-07-10T17:14:59.857Z,88.97
2018-07-10T17:17:29.823Z,88.71
2018-07-10T17:19:58.862Z,88.37
2018-07-10T17:22:28.209Z,89.25
2018-07-10T17:24:57.271Z,88.48
2018-07-10T17:27:32.934Z,88.76
2018-07-10T17:30:05.820Z,89.53
2018-07-10T17:32:36.851Z,88.66
2018-07-10T17:35:07.894Z,88.55
2018-07-10T17:37:43.899Z,88.45
2018-07-10T17:40:14.331Z,88.84
2018-07-10T17:42:44.267Z,88.79
2018-07-10T17:45:17.562Z,89.02
2018-07-10T17:47:47.938Z,89.57
2018-07-10T17:50:17.228Z,89.50
2018-07-10T17:52:46.315Z,89.00
2018-07-10T17:55:15.964Z,90.07
2018-07-10T17:57:45.736Z,90.24
2018-07-10T18:00:14.694Z,90.86
2018-07-10T18:02:43.902Z,90.29
2018-07-10T18:05:13.217Z,90.06
2018-07-10T18:07:42.436Z,90.52
2018-07-10T18:10:11.451Z,91.17
2018-07-10T18:12:40.886Z,91.16
2018-07-10T18:15:10.263Z,90.66
2018-07-10T18:17:39.534Z,90.21
2018-07-10T18:20:08.809Z,89.61
2018-07-10T18:22:38.181Z,89.54
2018-07-10T18:25:07.806Z,89.60
2018-07-10T18:27:37.093Z,89.26
2018-07-10T18:30:08.133Z,89.46
2018-07-10T18:32:37.481Z,89.72
2018-07-10T18:35:08.081Z,89.54
2018-07-10T18:37:37.640Z,89.76
2018-07-10T18:40:07.994Z,90.99
2018-07-10T18:42:37.271Z,95.58
2018-07-10T18:45:07.283Z,97.74
2018-07-10T18:47:36.639Z,98.60
2018-07-10T18:50:07.586Z,100.00
2018-07-10T18:52:37.090Z,99.34
2018-07-10T18:55:08.553Z,100.00
2018-07-10T18:57:45.572Z,100.00
2018-07-10T19:00:19.846Z,100.00
2018-07-10T19:03:11.786Z,100.00
2018-07-10T19:05:46.063Z,100.00
2018-07-10T19:08:16.662Z,100.00
2018-07-10T19:10:46.984Z,100.00
2018-07-10T19:13:17.464Z,100.00
2018-07-10T19:15:49.582Z,100.00
2018-07-10T19:18:18.847Z,100.00
2018-07-10T19:20:55.063Z,100.00
2018-07-10T19:23:33.020Z,100.00
2018-07-10T19:26:02.490Z,100.00
2018-07-10T19:28:36.853Z,100.00
2018-07-10T19:31:11.092Z,100.00
2018-07-10T19:33:43.111Z,100.00
2018-07-10T19:36:12.372Z,100.00
2018-07-10T19:38:41.872Z,100.00
2018-07-10T19:41:13.590Z,100.00
2018-07-10T19:43:43.508Z,100.00
2018-07-10T19:46:12.763Z,100.00
2018-07-10T19:48:46.637Z,100.00
2018-07-10T19:51:15.863Z,100.00
2018-07-10T19:53:52.149Z,100.00
2018-07-10T19:56:22.235Z,100.00
2018-07-10T19:58:51.875Z,100.00
2018-07-10T20:01:54.844Z,100.00
2018-07-10T20:04:41.147Z,100.00
2018-07-10T20:07:12.392Z,100.00
2018-07-10T20:09:55.385Z,100.00
2018-07-10T20:14:35.346Z,100.00
2018-07-10T20:17:10.201Z,100.00
2018-07-10T20:19:46.646Z,100.00
2018-07-10T20:24:24.214Z,100.00
2018-07-10T20:27:05.399Z,100.00
2018-07-10T20:29:46.291Z,100.00
2018-07-10T20:32:20.402Z,100.00
2018-07-10T20:35:06.650Z,100.00
2018-07-10T20:37:36.450Z,100.00
2018-07-10T20:40:07.749Z,100.00
2018-07-10T20:42:43.828Z,100.00
2018-07-10T20:45:13.838Z,100.00
2018-07-10T20:47:53.379Z,100.00
2018-07-10T20:50:59.983Z,100.00
2018-07-10T20:53:46.553Z,100.00
2018-07-10T20:56:26.164Z,100.00
2018-07-10T20:59:17.527Z,100.00
2018-07-10T21:01:48.402Z,100.00
2018-07-10T21:04:35.499Z,100.00
2018-07-10T21:07:13.247Z,100.00
2018-07-10T21:10:07.796Z,100.00
2018-07-10T21:13:48.367Z,100.00
2018-07-10T21:16:30.897Z,100.00
2018-07-10T21:19:11.103Z,100.00
2018-07-10T21:22:23.244Z,100.00
2018-07-10T21:24:57.178Z,100.00
2018-07-10T21:28:00.731Z,100.00
2018-07-10T21:30:37.124Z,100.00
2018-07-10T21:33:14.247Z,100.00
2018-07-10T21:35:50.367Z,100.00
2018-07-10T21:38:53.227Z,100.00
2018-07-10T21:43:41.508Z,100.00
2018-07-10T21:46:20.503Z,100.00
2018-07-10T21:49:56.527Z,100.00
2018-07-10T21:52:26.301Z,100.00
2018-07-10T21:54:55.995Z,100.00
2018-07-10T21:57:31.692Z,100.00
2018-07-10T22:00:04.547Z,100.00
2018-07-10T22:02:34.023Z,100.00
2018-07-10T22:05:06.620Z,100.00
2018-07-10T22:07:35.915Z,100.00
2018-07-10T22:10:08.584Z,100.00
2018-07-10T22:12:47.431Z,100.00
2018-07-10T22:15:16.752Z,100.00
2018-07-10T22:17:46.740Z,100.00
2018-07-10T22:20:16.664Z,100.00
2018-07-10T22:22:45.950Z,100.00
2018-07-10T22:25:15.076Z,100.00
2018-07-10T22:27:44.340Z,100.00
2018-07-10T22:30:21.656Z,100.00
2018-07-10T22:32:57.241Z,100.00
2018-07-10T22:35:26.479Z,100.00
2018-07-10T22:37:55.943Z,100.00
2018-07-10T22:40:25.194Z,100.00
2018-07-10T22:42:54.711Z,100.00
2018-07-10T22:45:23.983Z,100.00
2018-07-10T22:47:52.997Z,100.00
2018-07-10T22:50:24.033Z,100.00
2018-07-10T22:52:59.144Z,100.00
2018-07-10T22:55:31.964Z,100.00
2018-07-10T22:58:05.242Z,100.00
2018-07-10T23:00:36.403Z,100.00
2018-07-10T23:03:24.690Z,100.00
2018-07-10T23:05:55.031Z,100.00
2018-07-10T23:08:33.066Z,100.00
2018-07-10T23:11:04.192Z,100.00
2018-07-10T23:13:36.446Z,100.00
2018-07-10T23:16:05.764Z,100.00
2018-07-10T23:18:35.818Z,100.00
2018-07-10T23:21:05.362Z,100.00
2018-07-10T23:23:34.590Z,100.00
2018-07-10T23:26:03.797Z,100.00
2018-07-10T23:28:33.614Z,100.00
2018-07-10T23:31:04.910Z,100.00
2018-07-10T23:33:34.651Z,100.00
2018-07-10T23:36:05.602Z,100.00
2018-07-10T23:38:44.015Z,100.00
2018-07-10T23:41:26.016Z,100.00
2018-07-10T23:43:55.181Z,100.00
2018-07-10T23:46:31.827Z,100.00
2018-07-10T23:49:10.830Z,100.00
2018-07-10T23:51:52.095Z,100.00
2018-07-10T23:54:22.191Z,100.00
2018-07-10T23:56:51.711Z,100.00
2018-07-10T23:59:21.973Z,100.00
